sensor_id;sensor_type;location;lat;lon;timestamp;P1;durP1;ratioP1;P2;durP2;ratioP2
19951;SDS011;10137;49.406;19.484;2023-04-23T00:00:51;21.70;;;12.90;;
19951;SDS011;10137;49.406;19.484;2023-04-23T00:03:21;20.37;;;11.77;;
19951;SDS011;10137;49.406;19.484;2023-04-23T00:05:51;22.70;;;12.90;;
19951;SDS011;10137;49.406;19.484;2023-04-23T00:08:19;27.33;;;16.13;;
19951;SDS011;10137;49.406;19.484;2023-04-23T00:10:48;22.13;;;15.27;;
19951;SDS011;10137;49.406;19.484;2023-04-23T00:13:16;22.23;;;13.30;;
19951;SDS011;10137;49.406;19.484;2023-04-23T00:15:44;20.93;;;12.40;;
19951;SDS011;10137;49.406;19.484;2023-04-23T00:18:11;26.73;;;13.47;;
19951;SDS011;10137;49.406;19.484;2023-04-23T00:20:41;21.37;;;11.27;;
19951;SDS011;10137;49.406;19.484;2023-04-23T00:23:08;22.27;;;12.03;;
19951;SDS011;10137;49.406;19.484;2023-04-23T00:25:35;18.53;;;11.77;;
19951;SDS011;10137;49.406;19.484;2023-04-23T00:28:02;20.67;;;11.73;;
19951;SDS011;10137;49.406;19.484;2023-04-23T00:30:30;22.90;;;12.40;;
19951;SDS011;10137;49.406;19.484;2023-04-23T00:32:57;23.17;;;11.70;;
19951;SDS011;10137;49.406;19.484;2023-04-23T00:35:24;19.50;;;11.23;;
19951;SDS011;10137;49.406;19.484;2023-04-23T00:37:52;22.13;;;11.47;;
19951;SDS011;10137;49.406;19.484;2023-04-23T00:40:19;22.77;;;11.53;;
19951;SDS011;10137;49.406;19.484;2023-04-23T00:42:46;25.00;;;12.03;;
19951;SDS011;10137;49.406;19.484;2023-04-23T00:45:16;23.67;;;12.30;;
19951;SDS011;10137;49.406;19.484;2023-04-23T00:47:44;23.07;;;11.30;;
19951;SDS011;10137;49.406;19.484;2023-04-23T00:50:11;20.23;;;11.23;;
19951;SDS011;10137;49.406;19.484;2023-04-23T00:52:39;21.20;;;11.80;;
19951;SDS011;10137;49.406;19.484;2023-04-23T00:55:06;19.17;;;11.17;;
19951;SDS011;10137;49.406;19.484;2023-04-23T00:57:34;19.43;;;10.43;;
19951;SDS011;10137;49.406;19.484;2023-04-23T01:00:01;22.30;;;10.77;;
19951;SDS011;10137;49.406;19.484;2023-04-23T01:02:30;18.23;;;10.80;;
19951;SDS011;10137;49.406;19.484;2023-04-23T01:04:58;17.63;;;10.53;;
19951;SDS011;10137;49.406;19.484;2023-04-23T01:07:26;19.73;;;10.40;;
19951;SDS011;10137;49.406;19.484;2023-04-23T01:09:54;18.10;;;10.70;;
19951;SDS011;10137;49.406;19.484;2023-04-23T01:12:21;18.23;;;10.60;;
19951;SDS011;10137;49.406;19.484;2023-04-23T01:14:49;18.33;;;10.70;;
19951;SDS011;10137;49.406;19.484;2023-04-23T01:17:16;17.33;;;10.50;;
19951;SDS011;10137;49.406;19.484;2023-04-23T01:19:43;20.37;;;10.57;;
19951;SDS011;10137;49.406;19.484;2023-04-23T01:22:12;20.40;;;10.60;;
19951;SDS011;10137;49.406;19.484;2023-04-23T01:24:40;20.40;;;10.33;;
19951;SDS011;10137;49.406;19.484;2023-04-23T01:27:07;17.87;;;10.00;;
19951;SDS011;10137;49.406;19.484;2023-04-23T01:29:35;18.97;;;11.43;;
19951;SDS011;10137;49.406;19.484;2023-04-23T01:32:03;17.90;;;10.77;;
19951;SDS011;10137;49.406;19.484;2023-04-23T01:34:31;15.10;;;10.13;;
19951;SDS011;10137;49.406;19.484;2023-04-23T01:36:58;19.40;;;10.23;;
19951;SDS011;10137;49.406;19.484;2023-04-23T01:39:28;22.27;;;10.83;;
19951;SDS011;10137;49.406;19.484;2023-04-23T01:41:55;21.00;;;10.70;;
19951;SDS011;10137;49.406;19.484;2023-04-23T01:44:23;21.13;;;11.20;;
19951;SDS011;10137;49.406;19.484;2023-04-23T01:46:50;23.67;;;17.13;;
19951;SDS011;10137;49.406;19.484;2023-04-23T01:49:17;22.97;;;15.20;;
19951;SDS011;10137;49.406;19.484;2023-04-23T01:51:44;17.97;;;11.73;;
19951;SDS011;10137;49.406;19.484;2023-04-23T01:54:11;17.80;;;10.97;;
19951;SDS011;10137;49.406;19.484;2023-04-23T01:56:40;18.87;;;10.20;;
19951;SDS011;10137;49.406;19.484;2023-04-23T01:59:07;18.00;;;10.33;;
19951;SDS011;10137;49.406;19.484;2023-04-23T02:01:40;16.10;;;10.13;;
19951;SDS011;10137;49.406;19.484;2023-04-23T02:04:09;20.70;;;9.73;;
19951;SDS011;10137;49.406;19.484;2023-04-23T02:06:37;18.70;;;10.23;;
19951;SDS011;10137;49.406;19.484;2023-04-23T02:09:05;18.90;;;10.57;;
19951;SDS011;10137;49.406;19.484;2023-04-23T02:11:32;18.27;;;10.00;;
19951;SDS011;10137;49.406;19.484;2023-04-23T02:14:01;23.43;;;10.70;;
19951;SDS011;10137;49.406;19.484;2023-04-23T02:16:29;18.43;;;10.27;;
19951;SDS011;10137;49.406;19.484;2023-04-23T02:18:57;18.27;;;10.27;;
19951;SDS011;10137;49.406;19.484;2023-04-23T02:21:24;15.23;;;9.73;;
19951;SDS011;10137;49.406;19.484;2023-04-23T02:23:51;18.47;;;10.63;;
19951;SDS011;10137;49.406;19.484;2023-04-23T02:26:18;21.00;;;11.30;;
19951;SDS011;10137;49.406;19.484;2023-04-23T02:28:46;16.73;;;10.37;;
19951;SDS011;10137;49.406;19.484;2023-04-23T02:31:15;17.37;;;10.67;;
19951;SDS011;10137;49.406;19.484;2023-04-23T02:33:44;21.77;;;11.10;;
19951;SDS011;10137;49.406;19.484;2023-04-23T02:36:12;16.70;;;9.77;;
19951;SDS011;10137;49.406;19.484;2023-04-23T02:38:39;16.60;;;10.00;;
19951;SDS011;10137;49.406;19.484;2023-04-23T02:41:08;13.60;;;9.40;;
19951;SDS011;10137;49.406;19.484;2023-04-23T02:43:36;15.13;;;9.60;;
19951;SDS011;10137;49.406;19.484;2023-04-23T02:46:03;17.97;;;9.80;;
19951;SDS011;10137;49.406;19.484;2023-04-23T02:48:35;15.77;;;10.00;;
19951;SDS011;10137;49.406;19.484;2023-04-23T02:51:03;14.23;;;9.17;;
19951;SDS011;10137;49.406;19.484;2023-04-23T02:53:31;17.30;;;9.70;;
19951;SDS011;10137;49.406;19.484;2023-04-23T02:55:58;14.87;;;9.47;;
19951;SDS011;10137;49.406;19.484;2023-04-23T02:58:25;17.03;;;9.50;;
19951;SDS011;10137;49.406;19.484;2023-04-23T03:00:52;20.17;;;9.83;;
19951;SDS011;10137;49.406;19.484;2023-04-23T03:03:19;14.93;;;9.27;;
19951;SDS011;10137;49.406;19.484;2023-04-23T03:05:51;15.80;;;9.47;;
19951;SDS011;10137;49.406;19.484;2023-04-23T03:08:19;15.43;;;9.17;;
19951;SDS011;10137;49.406;19.484;2023-04-23T03:10:46;17.03;;;9.20;;
19951;SDS011;10137;49.406;19.484;2023-04-23T03:13:13;17.53;;;9.53;;
19951;SDS011;10137;49.406;19.484;2023-04-23T03:15:40;18.80;;;9.40;;
19951;SDS011;10137;49.406;19.484;2023-04-23T03:18:07;18.10;;;8.87;;
19951;SDS011;10137;49.406;19.484;2023-04-23T03:20:35;14.47;;;8.83;;
19951;SDS011;10137;49.406;19.484;2023-04-23T03:23:03;14.27;;;8.87;;
19951;SDS011;10137;49.406;19.484;2023-04-23T03:25:30;17.70;;;9.57;;
19951;SDS011;10137;49.406;19.484;2023-04-23T03:27:58;13.53;;;8.73;;
19951;SDS011;10137;49.406;19.484;2023-04-23T03:30:25;14.53;;;8.47;;
19951;SDS011;10137;49.406;19.484;2023-04-23T03:32:53;16.83;;;9.37;;
19951;SDS011;10137;49.406;19.484;2023-04-23T03:35:20;16.43;;;9.03;;
19951;SDS011;10137;49.406;19.484;2023-04-23T03:37:48;14.83;;;8.93;;
19951;SDS011;10137;49.406;19.484;2023-04-23T03:40:16;12.27;;;8.70;;
19951;SDS011;10137;49.406;19.484;2023-04-23T03:42:44;16.43;;;9.33;;
19951;SDS011;10137;49.406;19.484;2023-04-23T03:45:12;16.83;;;9.40;;
19951;SDS011;10137;49.406;19.484;2023-04-23T03:47:40;16.30;;;9.43;;
19951;SDS011;10137;49.406;19.484;2023-04-23T03:50:08;14.93;;;8.77;;
19951;SDS011;10137;49.406;19.484;2023-04-23T03:52:37;14.43;;;9.13;;
19951;SDS011;10137;49.406;19.484;2023-04-23T03:55:04;15.47;;;10.30;;
19951;SDS011;10137;49.406;19.484;2023-04-23T03:57:34;18.63;;;11.77;;
19951;SDS011;10137;49.406;19.484;2023-04-23T04:00:01;16.47;;;9.37;;
19951;SDS011;10137;49.406;19.484;2023-04-23T04:02:29;14.60;;;9.93;;
19951;SDS011;10137;49.406;19.484;2023-04-23T04:04:56;18.53;;;9.83;;
19951;SDS011;10137;49.406;19.484;2023-04-23T04:07:23;15.37;;;9.57;;
19951;SDS011;10137;49.406;19.484;2023-04-23T04:09:51;15.60;;;9.27;;
19951;SDS011;10137;49.406;19.484;2023-04-23T04:12:18;16.73;;;10.03;;
19951;SDS011;10137;49.406;19.484;2023-04-23T04:14:46;15.47;;;9.37;;
19951;SDS011;10137;49.406;19.484;2023-04-23T04:17:13;15.30;;;8.97;;
19951;SDS011;10137;49.406;19.484;2023-04-23T04:19:40;12.40;;;9.07;;
19951;SDS011;10137;49.406;19.484;2023-04-23T04:22:08;14.07;;;8.77;;
19951;SDS011;10137;49.406;19.484;2023-04-23T04:24:35;17.77;;;9.63;;
19951;SDS011;10137;49.406;19.484;2023-04-23T04:27:02;18.97;;;9.50;;
19951;SDS011;10137;49.406;19.484;2023-04-23T04:29:30;14.50;;;9.17;;
19951;SDS011;10137;49.406;19.484;2023-04-23T04:31:59;18.97;;;10.40;;
19951;SDS011;10137;49.406;19.484;2023-04-23T04:34:26;18.47;;;10.77;;
19951;SDS011;10137;49.406;19.484;2023-04-23T04:36:53;17.70;;;10.63;;
19951;SDS011;10137;49.406;19.484;2023-04-23T04:39:21;16.87;;;10.10;;
19951;SDS011;10137;49.406;19.484;2023-04-23T04:41:48;13.47;;;9.70;;
19951;SDS011;10137;49.406;19.484;2023-04-23T04:44:16;12.77;;;8.83;;
19951;SDS011;10137;49.406;19.484;2023-04-23T04:46:43;13.93;;;9.10;;
19951;SDS011;10137;49.406;19.484;2023-04-23T04:49:11;18.13;;;9.37;;
19951;SDS011;10137;49.406;19.484;2023-04-23T04:51:39;16.53;;;8.63;;
19951;SDS011;10137;49.406;19.484;2023-04-23T04:54:06;14.97;;;9.67;;
19951;SDS011;10137;49.406;19.484;2023-04-23T04:56:33;15.30;;;9.17;;
19951;SDS011;10137;49.406;19.484;2023-04-23T04:59:01;18.00;;;9.47;;
19951;SDS011;10137;49.406;19.484;2023-04-23T05:01:28;15.80;;;9.07;;
19951;SDS011;10137;49.406;19.484;2023-04-23T05:03:56;16.00;;;8.17;;
19951;SDS011;10137;49.406;19.484;2023-04-23T05:06:26;18.43;;;9.40;;
19951;SDS011;10137;49.406;19.484;2023-04-23T05:08:53;17.07;;;9.60;;
19951;SDS011;10137;49.406;19.484;2023-04-23T05:11:21;18.37;;;10.07;;
19951;SDS011;10137;49.406;19.484;2023-04-23T05:13:48;15.77;;;9.33;;
19951;SDS011;10137;49.406;19.484;2023-04-23T05:16:15;16.37;;;8.90;;
19951;SDS011;10137;49.406;19.484;2023-04-23T05:18:42;13.20;;;8.87;;
19951;SDS011;10137;49.406;19.484;2023-04-23T05:21:09;14.77;;;9.33;;
19951;SDS011;10137;49.406;19.484;2023-04-23T05:23:37;21.53;;;8.67;;
19951;SDS011;10137;49.406;19.484;2023-04-23T05:26:04;13.40;;;8.80;;
19951;SDS011;10137;49.406;19.484;2023-04-23T05:28:31;16.97;;;8.73;;
19951;SDS011;10137;49.406;19.484;2023-04-23T05:30:58;13.40;;;8.30;;
19951;SDS011;10137;49.406;19.484;2023-04-23T05:33:26;13.63;;;8.53;;
19951;SDS011;10137;49.406;19.484;2023-04-23T05:35:53;17.10;;;8.80;;
19951;SDS011;10137;49.406;19.484;2023-04-23T05:38:21;20.20;;;8.87;;
19951;SDS011;10137;49.406;19.484;2023-04-23T05:40:49;14.73;;;8.33;;
19951;SDS011;10137;49.406;19.484;2023-04-23T05:43:17;14.93;;;9.33;;
19951;SDS011;10137;49.406;19.484;2023-04-23T05:45:44;17.20;;;8.50;;
19951;SDS011;10137;49.406;19.484;2023-04-23T05:48:10;12.60;;;8.83;;
19951;SDS011;10137;49.406;19.484;2023-04-23T05:50:38;13.67;;;8.90;;
19951;SDS011;10137;49.406;19.484;2023-04-23T05:53:05;13.80;;;8.83;;
19951;SDS011;10137;49.406;19.484;2023-04-23T05:55:32;15.63;;;9.13;;
19951;SDS011;10137;49.406;19.484;2023-04-23T05:58:01;16.97;;;8.70;;
19951;SDS011;10137;49.406;19.484;2023-04-23T06:00:29;14.00;;;8.07;;
19951;SDS011;10137;49.406;19.484;2023-04-23T06:02:56;12.90;;;7.30;;
19951;SDS011;10137;49.406;19.484;2023-04-23T06:05:23;12.87;;;7.43;;
19951;SDS011;10137;49.406;19.484;2023-04-23T06:07:50;12.93;;;7.07;;
19951;SDS011;10137;49.406;19.484;2023-04-23T06:10:18;10.17;;;7.60;;
19951;SDS011;10137;49.406;19.484;2023-04-23T06:12:45;16.47;;;7.63;;
19951;SDS011;10137;49.406;19.484;2023-04-23T06:15:13;10.90;;;6.80;;
19951;SDS011;10137;49.406;19.484;2023-04-23T06:17:40;13.83;;;7.47;;
19951;SDS011;10137;49.406;19.484;2023-04-23T06:20:07;10.93;;;7.50;;
19951;SDS011;10137;49.406;19.484;2023-04-23T06:22:36;13.23;;;8.50;;
19951;SDS011;10137;49.406;19.484;2023-04-23T06:25:04;15.20;;;8.37;;
19951;SDS011;10137;49.406;19.484;2023-04-23T06:27:32;13.80;;;8.80;;
19951;SDS011;10137;49.406;19.484;2023-04-23T06:29:59;15.50;;;8.57;;
19951;SDS011;10137;49.406;19.484;2023-04-23T06:32:27;12.50;;;7.67;;
19951;SDS011;10137;49.406;19.484;2023-04-23T06:34:54;16.70;;;8.93;;
19951;SDS011;10137;49.406;19.484;2023-04-23T06:37:21;15.43;;;8.87;;
19951;SDS011;10137;49.406;19.484;2023-04-23T06:39:50;14.73;;;8.53;;
19951;SDS011;10137;49.406;19.484;2023-04-23T06:42:17;15.77;;;8.77;;
19951;SDS011;10137;49.406;19.484;2023-04-23T06:44:44;16.67;;;9.00;;
19951;SDS011;10137;49.406;19.484;2023-04-23T06:47:12;16.40;;;8.60;;
19951;SDS011;10137;49.406;19.484;2023-04-23T06:49:41;12.97;;;8.67;;
19951;SDS011;10137;49.406;19.484;2023-04-23T06:52:08;12.30;;;8.50;;
19951;SDS011;10137;49.406;19.484;2023-04-23T06:54:35;18.93;;;9.30;;
19951;SDS011;10137;49.406;19.484;2023-04-23T06:57:02;12.80;;;8.07;;
19951;SDS011;10137;49.406;19.484;2023-04-23T06:59:29;15.23;;;8.40;;
19951;SDS011;10137;49.406;19.484;2023-04-23T07:01:56;13.07;;;7.93;;
19951;SDS011;10137;49.406;19.484;2023-04-23T07:04:23;11.83;;;7.90;;
19951;SDS011;10137;49.406;19.484;2023-04-23T07:06:51;16.47;;;8.43;;
19951;SDS011;10137;49.406;19.484;2023-04-23T07:09:19;12.30;;;8.30;;
19951;SDS011;10137;49.406;19.484;2023-04-23T07:11:47;15.53;;;8.50;;
19951;SDS011;10137;49.406;19.484;2023-04-23T07:14:14;11.03;;;7.33;;
19951;SDS011;10137;49.406;19.484;2023-04-23T07:16:41;11.77;;;7.73;;
19951;SDS011;10137;49.406;19.484;2023-04-23T07:19:08;14.30;;;8.03;;
19951;SDS011;10137;49.406;19.484;2023-04-23T07:21:35;12.77;;;7.53;;
19951;SDS011;10137;49.406;19.484;2023-04-23T07:24:03;12.53;;;7.93;;
19951;SDS011;10137;49.406;19.484;2023-04-23T07:26:31;10.43;;;8.13;;
19951;SDS011;10137;49.406;19.484;2023-04-23T07:28:59;42.60;;;22.23;;
19951;SDS011;10137;49.406;19.484;2023-04-23T07:31:26;54.27;;;27.20;;
19951;SDS011;10137;49.406;19.484;2023-04-23T07:33:53;14.73;;;8.27;;
19951;SDS011;10137;49.406;19.484;2023-04-23T07:36:21;15.30;;;9.40;;
19951;SDS011;10137;49.406;19.484;2023-04-23T07:38:48;15.43;;;8.60;;
19951;SDS011;10137;49.406;19.484;2023-04-23T07:41:16;11.80;;;7.90;;
19951;SDS011;10137;49.406;19.484;2023-04-23T07:43:43;12.93;;;7.43;;
19951;SDS011;10137;49.406;19.484;2023-04-23T07:46:10;10.37;;;7.53;;
19951;SDS011;10137;49.406;19.484;2023-04-23T07:48:37;10.27;;;7.70;;
19951;SDS011;10137;49.406;19.484;2023-04-23T07:51:04;13.70;;;8.00;;
19951;SDS011;10137;49.406;19.484;2023-04-23T07:53:31;13.37;;;8.37;;
19951;SDS011;10137;49.406;19.484;2023-04-23T07:55:58;11.83;;;8.10;;
19951;SDS011;10137;49.406;19.484;2023-04-23T07:58:27;11.00;;;8.07;;
19951;SDS011;10137;49.406;19.484;2023-04-23T08:00:54;14.17;;;8.07;;
19951;SDS011;10137;49.406;19.484;2023-04-23T08:03:21;12.23;;;8.20;;
19951;SDS011;10137;49.406;19.484;2023-04-23T08:05:49;15.63;;;7.30;;
19951;SDS011;10137;49.406;19.484;2023-04-23T08:08:16;13.47;;;7.43;;
19951;SDS011;10137;49.406;19.484;2023-04-23T08:10:43;14.20;;;7.37;;
19951;SDS011;10137;49.406;19.484;2023-04-23T08:13:11;12.90;;;7.43;;
19951;SDS011;10137;49.406;19.484;2023-04-23T08:15:39;11.50;;;6.97;;
19951;SDS011;10137;49.406;19.484;2023-04-23T08:18:06;11.93;;;7.20;;
19951;SDS011;10137;49.406;19.484;2023-04-23T08:20:33;10.73;;;7.30;;
19951;SDS011;10137;49.406;19.484;2023-04-23T08:23:00;15.67;;;6.97;;
19951;SDS011;10137;49.406;19.484;2023-04-23T08:25:28;9.77;;;6.37;;
19951;SDS011;10137;49.406;19.484;2023-04-23T08:27:55;8.87;;;6.13;;
19951;SDS011;10137;49.406;19.484;2023-04-23T08:30:22;8.53;;;6.30;;
19951;SDS011;10137;49.406;19.484;2023-04-23T08:32:51;7.63;;;5.90;;
19951;SDS011;10137;49.406;19.484;2023-04-23T08:35:18;9.50;;;5.93;;
19951;SDS011;10137;49.406;19.484;2023-04-23T08:37:45;10.33;;;5.53;;
19951;SDS011;10137;49.406;19.484;2023-04-23T08:40:13;11.47;;;5.73;;
19951;SDS011;10137;49.406;19.484;2023-04-23T08:42:41;13.60;;;4.97;;
19951;SDS011;10137;49.406;19.484;2023-04-23T08:45:14;8.15;;;3.75;;
19951;SDS011;10137;49.406;19.484;2023-04-23T08:47:41;6.13;;;3.70;;
19951;SDS011;10137;49.406;19.484;2023-04-23T08:50:10;7.95;;;3.65;;
19951;SDS011;10137;49.406;19.484;2023-04-23T08:52:39;8.75;;;3.65;;
19951;SDS011;10137;49.406;19.484;2023-04-23T08:55:08;7.40;;;3.28;;
19951;SDS011;10137;49.406;19.484;2023-04-23T08:57:36;6.68;;;3.40;;
19951;SDS011;10137;49.406;19.484;2023-04-23T09:00:06;7.40;;;2.95;;
19951;SDS011;10137;49.406;19.484;2023-04-23T09:02:35;8.50;;;3.28;;
19951;SDS011;10137;49.406;19.484;2023-04-23T09:05:02;7.03;;;3.10;;
19951;SDS011;10137;49.406;19.484;2023-04-23T09:07:31;6.82;;;3.28;;
19951;SDS011;10137;49.406;19.484;2023-04-23T09:09:58;5.80;;;2.90;;
19951;SDS011;10137;49.406;19.484;2023-04-23T09:12:26;5.18;;;3.25;;
19951;SDS011;10137;49.406;19.484;2023-04-23T09:14:53;4.90;;;3.33;;
19951;SDS011;10137;49.406;19.484;2023-04-23T09:17:21;5.20;;;3.30;;
19951;SDS011;10137;49.406;19.484;2023-04-23T09:19:49;9.63;;;3.38;;
19951;SDS011;10137;49.406;19.484;2023-04-23T09:25:07;4.40;;;2.95;;
19951;SDS011;10137;49.406;19.484;2023-04-23T09:27:35;13.75;;;3.00;;
19951;SDS011;10137;49.406;19.484;2023-04-23T09:30:02;6.88;;;2.75;;
19951;SDS011;10137;49.406;19.484;2023-04-23T09:32:32;5.70;;;3.30;;
19951;SDS011;10137;49.406;19.484;2023-04-23T09:35:01;8.45;;;3.00;;
19951;SDS011;10137;49.406;19.484;2023-04-23T09:37:29;8.07;;;2.80;;
19951;SDS011;10137;49.406;19.484;2023-04-23T09:40:01;4.40;;;2.90;;
19951;SDS011;10137;49.406;19.484;2023-04-23T09:42:30;4.88;;;2.58;;
19951;SDS011;10137;49.406;19.484;2023-04-23T09:44:59;4.40;;;3.15;;
19951;SDS011;10137;49.406;19.484;2023-04-23T09:47:30;3.08;;;2.70;;
19951;SDS011;10137;49.406;19.484;2023-04-23T09:49:59;4.07;;;2.80;;
19951;SDS011;10137;49.406;19.484;2023-04-23T09:52:26;6.65;;;3.25;;
19951;SDS011;10137;49.406;19.484;2023-04-23T09:54:56;8.10;;;2.95;;
19951;SDS011;10137;49.406;19.484;2023-04-23T09:57:25;4.10;;;2.97;;
19951;SDS011;10137;49.406;19.484;2023-04-23T09:59:52;7.00;;;3.40;;
19951;SDS011;10137;49.406;19.484;2023-04-23T10:02:25;4.07;;;2.70;;
19951;SDS011;10137;49.406;19.484;2023-04-23T10:04:53;6.85;;;2.75;;
19951;SDS011;10137;49.406;19.484;2023-04-23T10:07:20;4.72;;;2.63;;
19951;SDS011;10137;49.406;19.484;2023-04-23T10:09:49;3.58;;;2.55;;
19951;SDS011;10137;49.406;19.484;2023-04-23T10:12:16;6.05;;;3.08;;
19951;SDS011;10137;49.406;19.484;2023-04-23T10:14:46;4.65;;;2.67;;
19951;SDS011;10137;49.406;19.484;2023-04-23T10:17:17;5.45;;;3.13;;
19951;SDS011;10137;49.406;19.484;2023-04-23T10:19:45;6.78;;;2.90;;
19951;SDS011;10137;49.406;19.484;2023-04-23T10:22:13;5.55;;;3.20;;
19951;SDS011;10137;49.406;19.484;2023-04-23T10:24:41;5.28;;;3.13;;
19951;SDS011;10137;49.406;19.484;2023-04-23T10:27:12;6.03;;;2.70;;
19951;SDS011;10137;49.406;19.484;2023-04-23T10:29:40;8.20;;;2.85;;
19951;SDS011;10137;49.406;19.484;2023-04-23T10:32:10;6.13;;;2.67;;
19951;SDS011;10137;49.406;19.484;2023-04-23T10:34:37;4.35;;;2.72;;
19951;SDS011;10137;49.406;19.484;2023-04-23T10:37:05;6.20;;;3.13;;
19951;SDS011;10137;49.406;19.484;2023-04-23T10:39:33;4.60;;;2.85;;
19951;SDS011;10137;49.406;19.484;2023-04-23T10:42:01;6.82;;;3.33;;
19951;SDS011;10137;49.406;19.484;2023-04-23T10:44:32;4.93;;;2.85;;
19951;SDS011;10137;49.406;19.484;2023-04-23T10:47:01;4.90;;;2.83;;
19951;SDS011;10137;49.406;19.484;2023-04-23T10:49:31;4.68;;;3.38;;
19951;SDS011;10137;49.406;19.484;2023-04-23T10:51:59;8.30;;;3.00;;
19951;SDS011;10137;49.406;19.484;2023-04-23T10:54:27;4.97;;;3.15;;
19951;SDS011;10137;49.406;19.484;2023-04-23T10:56:59;7.20;;;3.13;;
19951;SDS011;10137;49.406;19.484;2023-04-23T10:59:27;22.85;;;4.07;;
19951;SDS011;10137;49.406;19.484;2023-04-23T11:01:56;12.52;;;3.20;;
19951;SDS011;10137;49.406;19.484;2023-04-23T11:04:25;7.57;;;3.03;;
19951;SDS011;10137;49.406;19.484;2023-04-23T11:06:55;4.75;;;2.55;;
19951;SDS011;10137;49.406;19.484;2023-04-23T11:09:36;5.25;;;3.30;;
19951;SDS011;10137;49.406;19.484;2023-04-23T11:12:05;6.70;;;2.95;;
19951;SDS011;10137;49.406;19.484;2023-04-23T11:14:34;4.88;;;2.83;;
19951;SDS011;10137;49.406;19.484;2023-04-23T11:17:03;4.20;;;2.65;;
19951;SDS011;10137;49.406;19.484;2023-04-23T11:19:33;3.95;;;3.10;;
19951;SDS011;10137;49.406;19.484;2023-04-23T11:22:03;4.90;;;3.33;;
19951;SDS011;10137;49.406;19.484;2023-04-23T11:24:33;3.50;;;2.47;;
19951;SDS011;10137;49.406;19.484;2023-04-23T11:27:05;4.93;;;2.78;;
19951;SDS011;10137;49.406;19.484;2023-04-23T11:29:35;5.43;;;2.95;;
19951;SDS011;10137;49.406;19.484;2023-04-23T11:32:03;6.22;;;3.30;;
19951;SDS011;10137;49.406;19.484;2023-04-23T11:34:34;5.00;;;2.92;;
19951;SDS011;10137;49.406;19.484;2023-04-23T11:37:02;5.88;;;2.95;;
19951;SDS011;10137;49.406;19.484;2023-04-23T11:39:30;10.18;;;3.05;;
19951;SDS011;10137;49.406;19.484;2023-04-23T11:41:57;6.05;;;2.65;;
19951;SDS011;10137;49.406;19.484;2023-04-23T11:44:27;3.83;;;2.63;;
19951;SDS011;10137;49.406;19.484;2023-04-23T11:46:54;6.03;;;2.85;;
19951;SDS011;10137;49.406;19.484;2023-04-23T11:49:26;5.80;;;2.90;;
19951;SDS011;10137;49.406;19.484;2023-04-23T11:51:53;6.00;;;2.47;;
19951;SDS011;10137;49.406;19.484;2023-04-23T11:54:26;7.43;;;2.97;;
19951;SDS011;10137;49.406;19.484;2023-04-23T11:56:54;8.73;;;2.60;;
19951;SDS011;10137;49.406;19.484;2023-04-23T11:59:22;4.75;;;2.53;;
19951;SDS011;10137;49.406;19.484;2023-04-23T12:01:50;4.72;;;2.70;;
19951;SDS011;10137;49.406;19.484;2023-04-23T12:04:19;7.97;;;3.30;;
19951;SDS011;10137;49.406;19.484;2023-04-23T12:06:47;5.53;;;3.00;;
19951;SDS011;10137;49.406;19.484;2023-04-23T12:09:15;4.07;;;3.25;;
19951;SDS011;10137;49.406;19.484;2023-04-23T12:11:46;5.60;;;2.75;;
19951;SDS011;10137;49.406;19.484;2023-04-23T12:14:16;3.90;;;2.83;;
19951;SDS011;10137;49.406;19.484;2023-04-23T12:16:45;8.18;;;2.97;;
19951;SDS011;10137;49.406;19.484;2023-04-23T12:19:17;6.47;;;2.83;;
19951;SDS011;10137;49.406;19.484;2023-04-23T12:21:49;6.53;;;2.78;;
19951;SDS011;10137;49.406;19.484;2023-04-23T12:24:19;5.32;;;2.67;;
19951;SDS011;10137;49.406;19.484;2023-04-23T12:26:52;8.05;;;3.60;;
19951;SDS011;10137;49.406;19.484;2023-04-23T12:29:20;4.93;;;2.58;;
19951;SDS011;10137;49.406;19.484;2023-04-23T12:31:48;5.88;;;2.58;;
19951;SDS011;10137;49.406;19.484;2023-04-23T12:34:16;7.97;;;2.95;;
19951;SDS011;10137;49.406;19.484;2023-04-23T12:36:45;5.68;;;2.78;;
19951;SDS011;10137;49.406;19.484;2023-04-23T12:39:19;3.40;;;2.78;;
19951;SDS011;10137;49.406;19.484;2023-04-23T12:41:48;4.72;;;2.80;;
19951;SDS011;10137;49.406;19.484;2023-04-23T12:44:17;5.47;;;3.47;;
19951;SDS011;10137;49.406;19.484;2023-04-23T12:46:48;6.38;;;2.58;;
19951;SDS011;10137;49.406;19.484;2023-04-23T12:49:16;4.93;;;2.20;;
19951;SDS011;10137;49.406;19.484;2023-04-23T12:51:43;6.20;;;2.47;;
19951;SDS011;10137;49.406;19.484;2023-04-23T12:54:10;5.78;;;2.58;;
19951;SDS011;10137;49.406;19.484;2023-04-23T12:56:37;5.22;;;2.50;;
19951;SDS011;10137;49.406;19.484;2023-04-23T12:59:05;7.18;;;2.30;;
19951;SDS011;10137;49.406;19.484;2023-04-23T13:01:36;6.63;;;3.13;;
19951;SDS011;10137;49.406;19.484;2023-04-23T13:04:04;3.72;;;2.40;;
19951;SDS011;10137;49.406;19.484;2023-04-23T13:06:30;6.97;;;2.40;;
19951;SDS011;10137;49.406;19.484;2023-04-23T13:08:58;3.13;;;2.40;;
19951;SDS011;10137;49.406;19.484;2023-04-23T13:11:27;6.60;;;2.50;;
19951;SDS011;10137;49.406;19.484;2023-04-23T13:13:54;6.60;;;2.78;;
19951;SDS011;10137;49.406;19.484;2023-04-23T13:16:21;5.78;;;2.80;;
19951;SDS011;10137;49.406;19.484;2023-04-23T13:18:50;7.57;;;2.75;;
19951;SDS011;10137;49.406;19.484;2023-04-23T13:21:17;6.15;;;2.72;;
19951;SDS011;10137;49.406;19.484;2023-04-23T13:23:44;7.63;;;2.40;;
19951;SDS011;10137;49.406;19.484;2023-04-23T13:26:12;4.68;;;2.50;;
19951;SDS011;10137;49.406;19.484;2023-04-23T13:28:39;5.60;;;2.60;;
19951;SDS011;10137;49.406;19.484;2023-04-23T13:31:06;8.70;;;3.78;;
19951;SDS011;10137;49.406;19.484;2023-04-23T13:33:35;4.30;;;2.85;;
19951;SDS011;10137;49.406;19.484;2023-04-23T13:36:04;6.22;;;2.75;;
19951;SDS011;10137;49.406;19.484;2023-04-23T13:38:32;12.43;;;5.10;;
19951;SDS011;10137;49.406;19.484;2023-04-23T13:40:59;13.20;;;3.50;;
19951;SDS011;10137;49.406;19.484;2023-04-23T13:43:26;14.80;;;3.78;;
19951;SDS011;10137;49.406;19.484;2023-04-23T13:45:54;9.50;;;2.80;;
19951;SDS011;10137;49.406;19.484;2023-04-23T13:48:21;7.25;;;2.92;;
19951;SDS011;10137;49.406;19.484;2023-04-23T13:50:53;8.82;;;3.22;;
19951;SDS011;10137;49.406;19.484;2023-04-23T13:53:21;5.63;;;2.92;;
19951;SDS011;10137;49.406;19.484;2023-04-23T13:55:48;10.65;;;3.05;;
19951;SDS011;10137;49.406;19.484;2023-04-23T13:58:16;7.05;;;3.20;;
19951;SDS011;10137;49.406;19.484;2023-04-23T14:00:43;7.60;;;3.50;;
19951;SDS011;10137;49.406;19.484;2023-04-23T14:03:10;8.65;;;2.92;;
19951;SDS011;10137;49.406;19.484;2023-04-23T14:05:37;11.40;;;2.92;;
19951;SDS011;10137;49.406;19.484;2023-04-23T14:08:04;6.90;;;3.15;;
19951;SDS011;10137;49.406;19.484;2023-04-23T14:10:33;9.45;;;5.57;;
19951;SDS011;10137;49.406;19.484;2023-04-23T14:13:01;7.40;;;3.45;;
19951;SDS011;10137;49.406;19.484;2023-04-23T14:15:28;6.53;;;3.28;;
19951;SDS011;10137;49.406;19.484;2023-04-23T14:17:55;3.10;;;2.40;;
19951;SDS011;10137;49.406;19.484;2023-04-23T14:20:23;4.75;;;2.85;;
19951;SDS011;10137;49.406;19.484;2023-04-23T14:22:54;6.82;;;3.00;;
19951;SDS011;10137;49.406;19.484;2023-04-23T14:25:28;6.43;;;3.08;;
19951;SDS011;10137;49.406;19.484;2023-04-23T14:27:57;13.10;;;8.07;;
19951;SDS011;10137;49.406;19.484;2023-04-23T14:30:28;9.77;;;4.68;;